sensor_id;sensor_type;location;lat;lon;timestamp;P1;durP1;ratioP1;P2;durP2;ratioP2
82030;SDS011;71592;52.178;4.512;2023-10-31T00:01:45;3.33;;;1.60;;
82030;SDS011;71592;52.178;4.512;2023-10-31T00:04:10;4.43;;;2.43;;
82030;SDS011;71592;52.178;4.512;2023-10-31T00:06:36;3.43;;;2.03;;
82030;SDS011;71592;52.178;4.512;2023-10-31T00:09:01;6.63;;;2.50;;
82030;SDS011;71592;52.178;4.512;2023-10-31T00:11:26;5.60;;;2.40;;
82030;SDS011;71592;52.178;4.512;2023-10-31T00:13:54;7.15;;;2.60;;
82030;SDS011;71592;52.178;4.512;2023-10-31T00:16:19;5.47;;;3.03;;
82030;SDS011;71592;52.178;4.512;2023-10-31T00:18:44;6.87;;;3.20;;
82030;SDS011;71592;52.178;4.512;2023-10-31T00:21:12;6.87;;;3.50;;
82030;SDS011;71592;52.178;4.512;2023-10-31T00:23:44;6.15;;;3.22;;
82030;SDS011;71592;52.178;4.512;2023-10-31T00:26:09;7.85;;;4.00;;
82030;SDS011;71592;52.178;4.512;2023-10-31T00:28:35;7.25;;;3.65;;
82030;SDS011;71592;52.178;4.512;2023-10-31T00:31:00;6.57;;;3.78;;
82030;SDS011;71592;52.178;4.512;2023-10-31T00:33:25;4.95;;;3.05;;
82030;SDS011;71592;52.178;4.512;2023-10-31T00:35:54;7.20;;;2.97;;
82030;SDS011;71592;52.178;4.512;2023-10-31T00:38:19;9.07;;;3.10;;
82030;SDS011;71592;52.178;4.512;2023-10-31T00:40:45;5.17;;;3.07;;
82030;SDS011;71592;52.178;4.512;2023-10-31T00:43:10;5.30;;;2.70;;
82030;SDS011;71592;52.178;4.512;2023-10-31T00:45:35;7.70;;;3.55;;
82030;SDS011;71592;52.178;4.512;2023-10-31T00:48:01;4.63;;;2.40;;
82030;SDS011;71592;52.178;4.512;2023-10-31T00:50:26;5.00;;;2.20;;
82030;SDS011;71592;52.178;4.512;2023-10-31T00:52:51;5.90;;;2.40;;
82030;SDS011;71592;52.178;4.512;2023-10-31T00:55:17;5.68;;;2.63;;
82030;SDS011;71592;52.178;4.512;2023-10-31T00:57:42;4.60;;;2.08;;
82030;SDS011;71592;52.178;4.512;2023-10-31T01:00:07;3.87;;;1.93;;
82030;SDS011;71592;52.178;4.512;2023-10-31T01:02:34;4.80;;;1.85;;
82030;SDS011;71592;52.178;4.512;2023-10-31T01:05:00;6.60;;;1.95;;
82030;SDS011;71592;52.178;4.512;2023-10-31T01:07:25;2.70;;;1.60;;
82030;SDS011;71592;52.178;4.512;2023-10-31T01:09:51;3.90;;;2.00;;
82030;SDS011;71592;52.178;4.512;2023-10-31T01:12:16;6.05;;;1.55;;
82030;SDS011;71592;52.178;4.512;2023-10-31T01:14:42;2.87;;;1.60;;
82030;SDS011;71592;52.178;4.512;2023-10-31T01:17:07;2.80;;;1.30;;
82030;SDS011;71592;52.178;4.512;2023-10-31T01:19:32;2.93;;;1.60;;
82030;SDS011;71592;52.178;4.512;2023-10-31T01:21:58;2.75;;;1.30;;
82030;SDS011;71592;52.178;4.512;2023-10-31T01:24:23;3.53;;;1.47;;
82030;SDS011;71592;52.178;4.512;2023-10-31T01:26:49;2.72;;;1.23;;
82030;SDS011;71592;52.178;4.512;2023-10-31T01:29:14;2.63;;;1.25;;
82030;SDS011;71592;52.178;4.512;2023-10-31T01:31:43;1.90;;;1.20;;
82030;SDS011;71592;52.178;4.512;2023-10-31T01:34:08;1.38;;;1.10;;
82030;SDS011;71592;52.178;4.512;2023-10-31T01:36:33;2.55;;;1.13;;
82030;SDS011;71592;52.178;4.512;2023-10-31T01:38:59;4.10;;;1.20;;
82030;SDS011;71592;52.178;4.512;2023-10-31T01:41:24;2.95;;;1.33;;
82030;SDS011;71592;52.178;4.512;2023-10-31T01:43:49;3.13;;;1.60;;
82030;SDS011;71592;52.178;4.512;2023-10-31T01:46:15;2.83;;;1.30;;
82030;SDS011;71592;52.178;4.512;2023-10-31T01:48:43;1.70;;;1.20;;
82030;SDS011;71592;52.178;4.512;2023-10-31T01:51:08;2.38;;;1.00;;
82030;SDS011;71592;52.178;4.512;2023-10-31T01:53:34;2.22;;;1.80;;
82030;SDS011;71592;52.178;4.512;2023-10-31T01:56:00;3.35;;;1.17;;
82030;SDS011;71592;52.178;4.512;2023-10-31T01:58:29;3.00;;;1.40;;
82030;SDS011;71592;52.178;4.512;2023-10-31T02:00:55;3.00;;;1.20;;
82030;SDS011;71592;52.178;4.512;2023-10-31T02:03:26;3.30;;;0.90;;
82030;SDS011;71592;52.178;4.512;2023-10-31T02:05:52;2.95;;;1.20;;
82030;SDS011;71592;52.178;4.512;2023-10-31T02:08:17;1.98;;;1.15;;
82030;SDS011;71592;52.178;4.512;2023-10-31T02:10:42;2.13;;;1.40;;
82030;SDS011;71592;52.178;4.512;2023-10-31T02:13:11;3.63;;;1.30;;
82030;SDS011;71592;52.178;4.512;2023-10-31T02:15:36;2.65;;;1.27;;
82030;SDS011;71592;52.178;4.512;2023-10-31T02:18:02;3.08;;;0.98;;
82030;SDS011;71592;52.178;4.512;2023-10-31T02:20:27;4.23;;;1.40;;
82030;SDS011;71592;52.178;4.512;2023-10-31T02:22:52;3.03;;;1.17;;
82030;SDS011;71592;52.178;4.512;2023-10-31T02:25:18;2.57;;;1.00;;
82030;SDS011;71592;52.178;4.512;2023-10-31T02:27:43;3.28;;;1.05;;
82030;SDS011;71592;52.178;4.512;2023-10-31T02:30:09;2.45;;;0.93;;
82030;SDS011;71592;52.178;4.512;2023-10-31T02:32:34;2.58;;;1.20;;
82030;SDS011;71592;52.178;4.512;2023-10-31T02:34:59;3.10;;;1.30;;
82030;SDS011;71592;52.178;4.512;2023-10-31T02:37:25;3.77;;;1.40;;
82030;SDS011;71592;52.178;4.512;2023-10-31T02:39:50;3.97;;;1.03;;
82030;SDS011;71592;52.178;4.512;2023-10-31T02:42:15;3.83;;;1.17;;
82030;SDS011;71592;52.178;4.512;2023-10-31T02:44:40;2.23;;;1.10;;
82030;SDS011;71592;52.178;4.512;2023-10-31T02:47:05;4.53;;;1.10;;
82030;SDS011;71592;52.178;4.512;2023-10-31T02:49:31;4.53;;;0.97;;
82030;SDS011;71592;52.178;4.512;2023-10-31T02:51:56;2.63;;;1.20;;
82030;SDS011;71592;52.178;4.512;2023-10-31T02:54:22;0.98;;;0.82;;
82030;SDS011;71592;52.178;4.512;2023-10-31T02:56:49;3.25;;;1.30;;
82030;SDS011;71592;52.178;4.512;2023-10-31T02:59:15;3.00;;;0.80;;
82030;SDS011;71592;52.178;4.512;2023-10-31T03:01:40;2.63;;;1.03;;
82030;SDS011;71592;52.178;4.512;2023-10-31T03:04:06;1.83;;;0.80;;
82030;SDS011;71592;52.178;4.512;2023-10-31T03:06:31;2.67;;;1.40;;
82030;SDS011;71592;52.178;4.512;2023-10-31T03:08:56;4.63;;;1.40;;
82030;SDS011;71592;52.178;4.512;2023-10-31T03:11:22;1.73;;;0.90;;
82030;SDS011;71592;52.178;4.512;2023-10-31T03:13:48;2.13;;;1.05;;
82030;SDS011;71592;52.178;4.512;2023-10-31T03:16:13;3.85;;;0.98;;
82030;SDS011;71592;52.178;4.512;2023-10-31T03:18:39;3.42;;;1.05;;
82030;SDS011;71592;52.178;4.512;2023-10-31T03:21:04;1.57;;;0.80;;
82030;SDS011;71592;52.178;4.512;2023-10-31T03:23:29;2.00;;;1.20;;
82030;SDS011;71592;52.178;4.512;2023-10-31T03:25:55;2.63;;;1.00;;
82030;SDS011;71592;52.178;4.512;2023-10-31T03:28:20;2.00;;;1.10;;
82030;SDS011;71592;52.178;4.512;2023-10-31T03:30:49;4.00;;;1.00;;
82030;SDS011;71592;52.178;4.512;2023-10-31T03:33:14;1.67;;;1.13;;
82030;SDS011;71592;52.178;4.512;2023-10-31T03:35:40;1.77;;;1.17;;
82030;SDS011;71592;52.178;4.512;2023-10-31T03:38:05;2.95;;;0.90;;
82030;SDS011;71592;52.178;4.512;2023-10-31T03:40:30;2.13;;;1.00;;
82030;SDS011;71592;52.178;4.512;2023-10-31T03:42:56;3.07;;;1.10;;
82030;SDS011;71592;52.178;4.512;2023-10-31T03:45:21;1.53;;;1.00;;
82030;SDS011;71592;52.178;4.512;2023-10-31T03:47:46;4.70;;;1.02;;
82030;SDS011;71592;52.178;4.512;2023-10-31T03:50:12;2.08;;;1.05;;
82030;SDS011;71592;52.178;4.512;2023-10-31T03:52:37;2.75;;;1.10;;
82030;SDS011;71592;52.178;4.512;2023-10-31T03:55:03;2.27;;;0.90;;
82030;SDS011;71592;52.178;4.512;2023-10-31T03:57:28;2.85;;;1.70;;
82030;SDS011;71592;52.178;4.512;2023-10-31T03:59:53;1.30;;;0.87;;
82030;SDS011;71592;52.178;4.512;2023-10-31T04:02:19;1.03;;;0.77;;
82030;SDS011;71592;52.178;4.512;2023-10-31T04:04:44;2.23;;;0.83;;
82030;SDS011;71592;52.178;4.512;2023-10-31T04:07:09;2.43;;;1.00;;
82030;SDS011;71592;52.178;4.512;2023-10-31T04:09:34;3.37;;;0.93;;
82030;SDS011;71592;52.178;4.512;2023-10-31T04:12:03;2.17;;;0.98;;
82030;SDS011;71592;52.178;4.512;2023-10-31T04:14:28;1.92;;;0.98;;
82030;SDS011;71592;52.178;4.512;2023-10-31T04:16:54;1.33;;;0.80;;
82030;SDS011;71592;52.178;4.512;2023-10-31T04:19:19;3.30;;;1.15;;
82030;SDS011;71592;52.178;4.512;2023-10-31T04:21:45;1.60;;;1.00;;
82030;SDS011;71592;52.178;4.512;2023-10-31T04:24:13;2.00;;;1.10;;
82030;SDS011;71592;52.178;4.512;2023-10-31T04:26:39;3.53;;;1.20;;
82030;SDS011;71592;52.178;4.512;2023-10-31T04:29:08;2.30;;;1.10;;
82030;SDS011;71592;52.178;4.512;2023-10-31T04:31:33;1.33;;;0.87;;
82030;SDS011;71592;52.178;4.512;2023-10-31T04:33:58;3.27;;;1.07;;
82030;SDS011;71592;52.178;4.512;2023-10-31T04:36:23;1.70;;;0.90;;
82030;SDS011;71592;52.178;4.512;2023-10-31T04:38:51;1.67;;;0.80;;
82030;SDS011;71592;52.178;4.512;2023-10-31T04:41:17;6.87;;;1.10;;
82030;SDS011;71592;52.178;4.512;2023-10-31T04:43:42;2.05;;;0.88;;
82030;SDS011;71592;52.178;4.512;2023-10-31T04:46:07;2.10;;;0.60;;
82030;SDS011;71592;52.178;4.512;2023-10-31T04:48:33;2.25;;;0.88;;
82030;SDS011;71592;52.178;4.512;2023-10-31T04:50:58;1.67;;;0.87;;
82030;SDS011;71592;52.178;4.512;2023-10-31T04:53:24;2.17;;;1.10;;
82030;SDS011;71592;52.178;4.512;2023-10-31T04:55:49;2.70;;;0.90;;
82030;SDS011;71592;52.178;4.512;2023-10-31T04:58:15;2.80;;;0.90;;
82030;SDS011;71592;52.178;4.512;2023-10-31T05:00:40;2.30;;;1.03;;
82030;SDS011;71592;52.178;4.512;2023-10-31T05:03:06;1.15;;;1.00;;
82030;SDS011;71592;52.178;4.512;2023-10-31T05:05:31;3.45;;;1.30;;
82030;SDS011;71592;52.178;4.512;2023-10-31T05:07:56;5.63;;;1.45;;
82030;SDS011;71592;52.178;4.512;2023-10-31T05:10:23;2.65;;;1.23;;
82030;SDS011;71592;52.178;4.512;2023-10-31T05:12:48;2.80;;;1.35;;
82030;SDS011;71592;52.178;4.512;2023-10-31T05:15:13;2.22;;;0.90;;
82030;SDS011;71592;52.178;4.512;2023-10-31T05:17:39;2.50;;;1.30;;
82030;SDS011;71592;52.178;4.512;2023-10-31T05:20:04;2.65;;;1.25;;
82030;SDS011;71592;52.178;4.512;2023-10-31T05:22:29;1.52;;;1.15;;
82030;SDS011;71592;52.178;4.512;2023-10-31T05:24:55;3.23;;;1.00;;
82030;SDS011;71592;52.178;4.512;2023-10-31T05:27:20;1.98;;;1.38;;
82030;SDS011;71592;52.178;4.512;2023-10-31T05:29:45;4.33;;;1.20;;
82030;SDS011;71592;52.178;4.512;2023-10-31T05:32:11;2.17;;;1.20;;
82030;SDS011;71592;52.178;4.512;2023-10-31T05:34:36;7.03;;;1.80;;
82030;SDS011;71592;52.178;4.512;2023-10-31T05:37:01;2.87;;;1.80;;
82030;SDS011;71592;52.178;4.512;2023-10-31T05:39:26;1.93;;;1.17;;
82030;SDS011;71592;52.178;4.512;2023-10-31T05:41:52;2.27;;;1.43;;
82030;SDS011;71592;52.178;4.512;2023-10-31T05:44:17;3.90;;;1.60;;
82030;SDS011;71592;52.178;4.512;2023-10-31T05:46:42;3.40;;;1.37;;
82030;SDS011;71592;52.178;4.512;2023-10-31T05:49:07;2.63;;;1.23;;
82030;SDS011;71592;52.178;4.512;2023-10-31T05:51:33;3.40;;;1.30;;
82030;SDS011;71592;52.178;4.512;2023-10-31T05:53:58;4.53;;;1.50;;
82030;SDS011;71592;52.178;4.512;2023-10-31T05:56:24;5.97;;;1.70;;
82030;SDS011;71592;52.178;4.512;2023-10-31T05:58:49;2.53;;;1.60;;
82030;SDS011;71592;52.178;4.512;2023-10-31T06:01:15;3.60;;;1.77;;
82030;SDS011;71592;52.178;4.512;2023-10-31T06:03:43;4.93;;;1.73;;
82030;SDS011;71592;52.178;4.512;2023-10-31T06:06:09;2.60;;;1.80;;
82030;SDS011;71592;52.178;4.512;2023-10-31T06:08:34;4.95;;;2.72;;
82030;SDS011;71592;52.178;4.512;2023-10-31T06:10:59;3.55;;;2.03;;
82030;SDS011;71592;52.178;4.512;2023-10-31T06:13:25;4.15;;;2.30;;
82030;SDS011;71592;52.178;4.512;2023-10-31T06:15:52;5.72;;;2.30;;
82030;SDS011;71592;52.178;4.512;2023-10-31T06:18:18;5.63;;;2.28;;
82030;SDS011;71592;52.178;4.512;2023-10-31T06:20:43;5.90;;;2.20;;
82030;SDS011;71592;52.178;4.512;2023-10-31T06:23:09;4.97;;;2.38;;
82030;SDS011;71592;52.178;4.512;2023-10-31T06:25:34;7.80;;;2.58;;
82030;SDS011;71592;52.178;4.512;2023-10-31T06:27:59;5.65;;;2.72;;
82030;SDS011;71592;52.178;4.512;2023-10-31T06:30:25;5.47;;;2.67;;
82030;SDS011;71592;52.178;4.512;2023-10-31T06:32:51;6.45;;;3.05;;
82030;SDS011;71592;52.178;4.512;2023-10-31T06:35:16;5.03;;;2.58;;
82030;SDS011;71592;52.178;4.512;2023-10-31T06:37:42;4.20;;;2.67;;
82030;SDS011;71592;52.178;4.512;2023-10-31T06:40:07;7.15;;;2.88;;
82030;SDS011;71592;52.178;4.512;2023-10-31T06:42:33;5.75;;;2.90;;
82030;SDS011;71592;52.178;4.512;2023-10-31T06:44:58;5.90;;;2.88;;
82030;SDS011;71592;52.178;4.512;2023-10-31T06:47:23;3.30;;;2.80;;
82030;SDS011;71592;52.178;4.512;2023-10-31T06:49:49;4.53;;;2.47;;
82030;SDS011;71592;52.178;4.512;2023-10-31T06:52:14;4.43;;;2.75;;
82030;SDS011;71592;52.178;4.512;2023-10-31T06:54:39;5.20;;;2.47;;
82030;SDS011;71592;52.178;4.512;2023-10-31T06:57:05;4.47;;;2.57;;
82030;SDS011;71592;52.178;4.512;2023-10-31T06:59:30;3.97;;;2.53;;
82030;SDS011;71592;52.178;4.512;2023-10-31T07:01:56;4.13;;;2.75;;
82030;SDS011;71592;52.178;4.512;2023-10-31T07:04:21;5.88;;;2.45;;
82030;SDS011;71592;52.178;4.512;2023-10-31T07:06:47;7.18;;;2.30;;
82030;SDS011;71592;52.178;4.512;2023-10-31T07:09:12;4.53;;;2.17;;
82030;SDS011;71592;52.178;4.512;2023-10-31T07:11:37;3.15;;;2.28;;
82030;SDS011;71592;52.178;4.512;2023-10-31T07:14:03;4.53;;;2.17;;
82030;SDS011;71592;52.178;4.512;2023-10-31T07:16:28;3.55;;;2.20;;
82030;SDS011;71592;52.178;4.512;2023-10-31T07:18:54;3.67;;;2.25;;
82030;SDS011;71592;52.178;4.512;2023-10-31T07:21:19;3.17;;;1.80;;
82030;SDS011;71592;52.178;4.512;2023-10-31T07:23:45;3.88;;;1.70;;
82030;SDS011;71592;52.178;4.512;2023-10-31T07:26:10;3.72;;;2.17;;
82030;SDS011;71592;52.178;4.512;2023-10-31T07:28:36;5.63;;;1.57;;
82030;SDS011;71592;52.178;4.512;2023-10-31T07:31:01;3.63;;;1.98;;
82030;SDS011;71592;52.178;4.512;2023-10-31T07:33:26;3.00;;;1.80;;
82030;SDS011;71592;52.178;4.512;2023-10-31T07:35:52;4.65;;;1.90;;
82030;SDS011;71592;52.178;4.512;2023-10-31T07:38:17;4.10;;;1.67;;
82030;SDS011;71592;52.178;4.512;2023-10-31T07:40:43;3.65;;;2.05;;
82030;SDS011;71592;52.178;4.512;2023-10-31T07:43:08;5.18;;;2.00;;
82030;SDS011;71592;52.178;4.512;2023-10-31T07:45:33;3.40;;;2.00;;
82030;SDS011;71592;52.178;4.512;2023-10-31T07:47:59;4.18;;;1.90;;
82030;SDS011;71592;52.178;4.512;2023-10-31T07:50:24;3.40;;;2.57;;
82030;SDS011;71592;52.178;4.512;2023-10-31T07:52:49;4.88;;;1.95;;
82030;SDS011;71592;52.178;4.512;2023-10-31T07:55:14;3.17;;;2.03;;
82030;SDS011;71592;52.178;4.512;2023-10-31T07:57:40;5.25;;;2.53;;
82030;SDS011;71592;52.178;4.512;2023-10-31T08:00:08;4.00;;;1.90;;
82030;SDS011;71592;52.178;4.512;2023-10-31T08:02:35;3.90;;;2.17;;
82030;SDS011;71592;52.178;4.512;2023-10-31T08:05:01;3.67;;;1.77;;
82030;SDS011;71592;52.178;4.512;2023-10-31T08:07:26;4.50;;;2.50;;
82030;SDS011;71592;52.178;4.512;2023-10-31T08:09:55;3.75;;;1.88;;
82030;SDS011;71592;52.178;4.512;2023-10-31T08:12:20;4.63;;;2.05;;
82030;SDS011;71592;52.178;4.512;2023-10-31T08:14:45;4.65;;;1.90;;
82030;SDS011;71592;52.178;4.512;2023-10-31T08:17:11;3.58;;;1.90;;
82030;SDS011;71592;52.178;4.512;2023-10-31T08:19:36;6.17;;;2.17;;
82030;SDS011;71592;52.178;4.512;2023-10-31T08:22:02;3.10;;;1.60;;
82030;SDS011;71592;52.178;4.512;2023-10-31T08:24:27;4.95;;;1.60;;
82030;SDS011;71592;52.178;4.512;2023-10-31T08:26:52;6.28;;;1.63;;
82030;SDS011;71592;52.178;4.512;2023-10-31T08:29:18;5.93;;;2.47;;
82030;SDS011;71592;52.178;4.512;2023-10-31T08:31:43;3.87;;;1.80;;
82030;SDS011;71592;52.178;4.512;2023-10-31T08:34:08;6.57;;;1.97;;
82030;SDS011;71592;52.178;4.512;2023-10-31T08:36:33;4.60;;;2.10;;
82030;SDS011;71592;52.178;4.512;2023-10-31T08:38:59;4.07;;;2.07;;
82030;SDS011;71592;52.178;4.512;2023-10-31T08:41:24;5.43;;;2.20;;
82030;SDS011;71592;52.178;4.512;2023-10-31T08:43:49;5.50;;;2.08;;
82030;SDS011;71592;52.178;4.512;2023-10-31T08:46:15;4.90;;;1.90;;
82030;SDS011;71592;52.178;4.512;2023-10-31T08:48:40;4.27;;;2.10;;
82030;SDS011;71592;52.178;4.512;2023-10-31T08:51:05;7.07;;;2.40;;
82030;SDS011;71592;52.178;4.512;2023-10-31T08:53:31;4.07;;;2.00;;
82030;SDS011;71592;52.178;4.512;2023-10-31T08:55:56;4.78;;;2.45;;
82030;SDS011;71592;52.178;4.512;2023-10-31T08:58:21;5.22;;;2.22;;
82030;SDS011;71592;52.178;4.512;2023-10-31T09:00:47;4.45;;;1.92;;
82030;SDS011;71592;52.178;4.512;2023-10-31T09:03:12;6.05;;;2.10;;
82030;SDS011;71592;52.178;4.512;2023-10-31T09:05:37;5.20;;;1.87;;
82030;SDS011;71592;52.178;4.512;2023-10-31T09:08:03;8.07;;;2.20;;
82030;SDS011;71592;52.178;4.512;2023-10-31T09:10:28;4.93;;;2.03;;
82030;SDS011;71592;52.178;4.512;2023-10-31T09:12:53;5.27;;;2.23;;
82030;SDS011;71592;52.178;4.512;2023-10-31T09:15:19;6.47;;;2.05;;
82030;SDS011;71592;52.178;4.512;2023-10-31T09:17:45;6.47;;;2.33;;
82030;SDS011;71592;52.178;4.512;2023-10-31T09:20:11;4.18;;;2.10;;
82030;SDS011;71592;52.178;4.512;2023-10-31T09:22:37;4.30;;;1.98;;
82030;SDS011;71592;52.178;4.512;2023-10-31T09:25:02;5.13;;;2.40;;
82030;SDS011;71592;52.178;4.512;2023-10-31T09:27:28;4.57;;;2.53;;
82030;SDS011;71592;52.178;4.512;2023-10-31T09:29:53;6.50;;;2.20;;
82030;SDS011;71592;52.178;4.512;2023-10-31T09:32:19;5.65;;;2.40;;
82030;SDS011;71592;52.178;4.512;2023-10-31T09:34:44;8.33;;;2.63;;
82030;SDS011;71592;52.178;4.512;2023-10-31T09:37:09;5.67;;;2.33;;
82030;SDS011;71592;52.178;4.512;2023-10-31T09:39:34;3.22;;;1.80;;
82030;SDS011;71592;52.178;4.512;2023-10-31T09:42:00;3.13;;;1.80;;
82030;SDS011;71592;52.178;4.512;2023-10-31T09:44:25;5.72;;;1.80;;
82030;SDS011;71592;52.178;4.512;2023-10-31T09:46:51;5.77;;;2.07;;
82030;SDS011;71592;52.178;4.512;2023-10-31T09:49:16;4.75;;;2.08;;
82030;SDS011;71592;52.178;4.512;2023-10-31T09:51:42;4.00;;;1.98;;
82030;SDS011;71592;52.178;4.512;2023-10-31T09:54:08;3.70;;;2.10;;
82030;SDS011;71592;52.178;4.512;2023-10-31T09:56:34;4.22;;;2.20;;
82030;SDS011;71592;52.178;4.512;2023-10-31T09:59:00;5.07;;;2.10;;
82030;SDS011;71592;52.178;4.512;2023-10-31T10:01:25;3.90;;;1.70;;
82030;SDS011;71592;52.178;4.512;2023-10-31T10:03:54;4.75;;;2.00;;
82030;SDS011;71592;52.178;4.512;2023-10-31T10:06:20;5.00;;;1.70;;
82030;SDS011;71592;52.178;4.512;2023-10-31T10:08:48;2.50;;;1.55;;
82030;SDS011;71592;52.178;4.512;2023-10-31T10:11:14;3.00;;;1.60;;
82030;SDS011;71592;52.178;4.512;2023-10-31T10:13:39;2.08;;;1.13;;
82030;SDS011;71592;52.178;4.512;2023-10-31T10:16:04;2.70;;;1.10;;
82030;SDS011;71592;52.178;4.512;2023-10-31T10:18:31;3.03;;;1.10;;
82030;SDS011;71592;52.178;4.512;2023-10-31T10:20:57;1.75;;;1.20;;
82030;SDS011;71592;52.178;4.512;2023-10-31T10:23:26;1.52;;;0.95;;
82030;SDS011;71592;52.178;4.512;2023-10-31T10:25:52;3.13;;;1.35;;
82030;SDS011;71592;52.178;4.512;2023-10-31T10:28:17;3.03;;;1.13;;
82030;SDS011;71592;52.178;4.512;2023-10-31T10:30:49;2.80;;;1.20;;
82030;SDS011;71592;52.178;4.512;2023-10-31T10:33:14;3.33;;;1.70;;
82030;SDS011;71592;52.178;4.512;2023-10-31T10:35:41;2.83;;;1.33;;
82030;SDS011;71592;52.178;4.512;2023-10-31T10:38:12;2.70;;;1.35;;
82030;SDS011;71592;52.178;4.512;2023-10-31T10:40:41;3.38;;;1.30;;
82030;SDS011;71592;52.178;4.512;2023-10-31T10:43:08;3.85;;;1.15;;
82030;SDS011;71592;52.178;4.512;2023-10-31T10:45:38;2.17;;;1.40;;
82030;SDS011;71592;52.178;4.512;2023-10-31T10:48:07;2.53;;;1.65;;
82030;SDS011;71592;52.178;4.512;2023-10-31T10:50:35;2.17;;;1.30;;
82030;SDS011;71592;52.178;4.512;2023-10-31T10:55:39;2.80;;;0.90;;
82030;SDS011;71592;52.178;4.512;2023-10-31T10:58:05;3.13;;;1.13;;
82030;SDS011;71592;52.178;4.512;2023-10-31T11:00:30;2.67;;;1.50;;
82030;SDS011;71592;52.178;4.512;2023-10-31T11:02:56;2.97;;;1.27;;
82030;SDS011;71592;52.178;4.512;2023-10-31T11:05:23;4.30;;;1.00;;
82030;SDS011;71592;52.178;4.512;2023-10-31T11:07:48;3.28;;;1.40;;
82030;SDS011;71592;52.178;4.512;2023-10-31T11:10:14;2.13;;;1.20;;
82030;SDS011;71592;52.178;4.512;2023-10-31T11:12:39;3.08;;;1.20;;
82030;SDS011;71592;52.178;4.512;2023-10-31T11:15:09;2.85;;;1.60;;
82030;SDS011;71592;52.178;4.512;2023-10-31T11:17:35;3.47;;;1.50;;
82030;SDS011;71592;52.178;4.512;2023-10-31T11:20:01;2.13;;;1.33;;
82030;SDS011;71592;52.178;4.512;2023-10-31T11:22:37;4.68;;;1.23;;
82030;SDS011;71592;52.178;4.512;2023-10-31T11:25:04;3.25;;;1.20;;
82030;SDS011;71592;52.178;4.512;2023-10-31T11:27:29;2.42;;;1.27;;
82030;SDS011;71592;52.178;4.512;2023-10-31T11:29:54;3.53;;;1.77;;
82030;SDS011;71592;52.178;4.512;2023-10-31T11:32:23;3.63;;;1.60;;
82030;SDS011;71592;52.178;4.512;2023-10-31T11:34:56;4.68;;;2.00;;
82030;SDS011;71592;52.178;4.512;2023-10-31T11:37:25;5.50;;;2.30;;
82030;SDS011;71592;52.178;4.512;2023-10-31T11:42:37;7.25;;;2.95;;
82030;SDS011;71592;52.178;4.512;2023-10-31T11:45:03;4.95;;;2.60;;
82030;SDS011;71592;52.178;4.512;2023-10-31T11:47:44;5.97;;;2.10;;
82030;SDS011;71592;52.178;4.512;2023-10-31T11:50:10;8.32;;;2.67;;
82030;SDS011;71592;52.178;4.512;2023-10-31T11:52:35;6.93;;;3.03;;
82030;SDS011;71592;52.178;4.512;2023-10-31T11:55:01;6.60;;;2.50;;
82030;SDS011;71592;52.178;4.512;2023-10-31T11:57:28;8.27;;;2.55;;
82030;SDS011;71592;52.178;4.512;2023-10-31T11:59:53;7.32;;;2.40;;
82030;SDS011;71592;52.178;4.512;2023-10-31T12:02:19;4.70;;;2.17;;
82030;SDS011;71592;52.178;4.512;2023-10-31T12:04:45;5.05;;;2.50;;
82030;SDS011;71592;52.178;4.512;2023-10-31T12:07:11;6.45;;;2.33;;
82030;SDS011;71592;52.178;4.512;2023-10-31T12:09:46;7.03;;;2.47;;
82030;SDS011;71592;52.178;4.512;2023-10-31T12:12:12;9.25;;;3.50;;
82030;SDS011;71592;52.178;4.512;2023-10-31T12:14:37;9.93;;;3.27;;
82030;SDS011;71592;52.178;4.512;2023-10-31T12:17:05;7.30;;;3.40;;
82030;SDS011;71592;52.178;4.512;2023-10-31T12:19:32;7.28;;;3.92;;
82030;SDS011;71592;52.178;4.512;2023-10-31T12:21:57;7.40;;;4.15;;
82030;SDS011;71592;52.178;4.512;2023-10-31T12:24:22;9.97;;;4.63;;
82030;SDS011;71592;52.178;4.512;2023-10-31T12:26:48;6.97;;;4.70;;
82030;SDS011;71592;52.178;4.512;2023-10-31T12:29:14;6.57;;;3.80;;
82030;SDS011;71592;52.178;4.512;2023-10-31T12:31:44;5.75;;;3.10;;
82030;SDS011;71592;52.178;4.512;2023-10-31T12:34:16;7.10;;;2.95;;
82030;SDS011;71592;52.178;4.512;2023-10-31T12:36:41;4.90;;;2.63;;
82030;SDS011;71592;52.178;4.512;2023-10-31T12:39:08;3.88;;;2.35;;
82030;SDS011;71592;52.178;4.512;2023-10-31T12:41:34;3.72;;;1.60;;
82030;SDS011;71592;52.178;4.512;2023-10-31T12:44:00;7.40;;;1.90;;
82030;SDS011;71592;52.178;4.512;2023-10-31T12:46:29;4.05;;;1.60;;
82030;SDS011;71592;52.178;4.512;2023-10-31T12:48:55;3.38;;;1.50;;
82030;SDS011;71592;52.178;4.512;2023-10-31T12:51:20;4.35;;;1.50;;
82030;SDS011;71592;52.178;4.512;2023-10-31T12:53:49;3.83;;;1.33;;
82030;SDS011;71592;52.178;4.512;2023-10-31T12:58:59;13.45;;;8.32;;
82030;SDS011;71592;52.178;4.512;2023-10-31T13:01:24;18.23;;;9.50;;
82030;SDS011;71592;52.178;4.512;2023-10-31T13:03:49;12.32;;;9.32;;
82030;SDS011;71592;52.178;4.512;2023-10-31T13:06:19;14.52;;;8.82;;
82030;SDS011;71592;52.178;4.512;2023-10-31T13:08:47;12.13;;;8.43;;
82030;SDS011;71592;52.178;4.512;2023-10-31T13:11:13;14.27;;;8.77;;
82030;SDS011;71592;52.178;4.512;2023-10-31T13:13:38;14.25;;;8.73;;
82030;SDS011;71592;52.178;4.512;2023-10-31T13:16:04;14.50;;;9.60;;
82030;SDS011;71592;52.178;4.512;2023-10-31T13:18:29;13.88;;;8.60;;
82030;SDS011;71592;52.178;4.512;2023-10-31T13:20:54;13.45;;;9.15;;
82030;SDS011;71592;52.178;4.512;2023-10-31T13:23:22;16.33;;;10.93;;
82030;SDS011;71592;52.178;4.512;2023-10-31T13:25:48;15.25;;;10.65;;
82030;SDS011;71592;52.178;4.512;2023-10-31T13:28:13;17.83;;;10.90;;
82030;SDS011;71592;52.178;4.512;2023-10-31T13:30:39;18.13;;;12.00;;
82030;SDS011;71592;52.178;4.512;2023-10-31T13:33:04;20.20;;;13.15;;
82030;SDS011;71592;52.178;4.512;2023-10-31T13:35:30;20.40;;;13.60;;
82030;SDS011;71592;52.178;4.512;2023-10-31T13:37:55;20.02;;;13.27;;
82030;SDS011;71592;52.178;4.512;2023-10-31T13:40:20;21.20;;;13.10;;
82030;SDS011;71592;52.178;4.512;2023-10-31T13:42:46;21.30;;;13.68;;
82030;SDS011;71592;52.178;4.512;2023-10-31T13:45:12;22.47;;;13.60;;
82030;SDS011;71592;52.178;4.512;2023-10-31T13:47:37;25.23;;;14.67;;
82030;SDS011;71592;52.178;4.512;2023-10-31T13:50:03;20.08;;;14.30;;
82030;SDS011;71592;52.178;4.512;2023-10-31T13:52:29;26.70;;;15.90;;
82030;SDS011;71592;52.178;4.512;2023-10-31T13:54:54;21.35;;;13.82;;
82030;SDS011;71592;52.178;4.512;2023-10-31T13:57:20;22.48;;;14.55;;
82030;SDS011;71592;52.178;4.512;2023-10-31T13:59:45;24.60;;;14.27;;
82030;SDS011;71592;52.178;4.512;2023-10-31T14:02:10;21.43;;;13.53;;
82030;SDS011;71592;52.178;4.512;2023-10-31T14:04:36;18.53;;;12.67;;
82030;SDS011;71592;52.178;4.512;2023-10-31T14:07:01;21.20;;;12.70;;
82030;SDS011;71592;52.178;4.512;2023-10-31T14:09:26;20.93;;;11.70;;
82030;SDS011;71592;52.178;4.512;2023-10-31T14:11:52;18.90;;;11.55;;
82030;SDS011;71592;52.178;4.512;2023-10-31T14:14:17;16.85;;;11.27;;
82030;SDS011;71592;52.178;4.512;2023-10-31T14:16:44;18.83;;;11.55;;
82030;SDS011;71592;52.178;4.512;2023-10-31T14:19:09;17.65;;;11.85;;
82030;SDS011;71592;52.178;4.512;2023-10-31T14:21:35;16.05;;;10.93;;
82030;SDS011;71592;52.178;4.512;2023-10-31T14:24:01;16.30;;;10.82;;
82030;SDS011;71592;52.178;4.512;2023-10-31T14:26:28;15.98;;;11.25;;
82030;SDS011;71592;52.178;4.512;2023-10-31T14:28:54;15.20;;;9.65;;
82030;SDS011;71592;52.178;4.512;2023-10-31T14:31:19;16.52;;;10.60;;
82030;SDS011;71592;52.178;4.512;2023-10-31T14:33:48;13.05;;;9.50;;
82030;SDS011;71592;52.178;4.512;2023-10-31T14:36:13;13.60;;;9.00;;
82030;SDS011;71592;52.178;4.512;2023-10-31T14:38:39;15.50;;;8.30;;
82030;SDS011;71592;52.178;4.512;2023-10-31T14:41:06;13.13;;;8.85;;
82030;SDS011;71592;52.178;4.512;2023-10-31T14:43:32;12.38;;;8.02;;
82030;SDS011;71592;52.178;4.512;2023-10-31T14:45:57;13.43;;;9.57;;